Time;durP1;ratioP1;P1;durP2;ratioP2;P2;SDS_P1;SDS_P2;PMS_P1;PMS_P2;Temp;Humidity;BMP_temperature;BMP_pressure;BME280_temperature;BME280_humidity;BME280_pressure;Samples;Min_cycle;Max_cycle;Signal;HPM_P1;HPM_P2
2022/01/14 00:01:08;;;;;;;145.75;119.28;;;6.50;99.90;;;;;;5019074;28;20053;-85
2022/01/14 00:03:35;;;;;;;;;;;6.50;99.90;;;;;;5037891;28;20113;-87
2022/01/14 00:06:02;;;;;;;150.60;117.32;;;6.50;99.90;;;;;;5039323;28;20397;-87
2022/01/14 00:08:29;;;;;;;147.23;116.53;;;6.60;99.90;;;;;;5032593;28;20124;-86
2022/01/14 00:10:58;;;;;;;150.32;117.13;;;6.50;99.90;;;;;;5059523;28;20053;-86
2022/01/14 00:13:47;;;;;;;147.90;118.18;;;6.50;99.90;;;;;;5013721;28;20085;-87
2022/01/14 00:16:15;;;;;;;151.05;116.93;;;6.50;99.90;;;;;;5008372;28;20137;-86
2022/01/14 00:18:44;;;;;;;147.63;117.20;;;6.50;99.90;;;;;;5022615;28;20073;-87
2022/01/14 00:21:11;;;;;;;148.98;118.28;;;6.50;99.90;;;;;;5022927;28;20136;-86
2022/01/14 00:23:41;;;;;;;145.35;117.70;;;6.60;99.90;;;;;;5006932;28;20085;-86
2022/01/14 00:31:43;;;;;;;149.75;119.00;;;6.60;99.90;;;;;;5018566;28;20125;-86
2022/01/14 00:34:11;;;;;;;145.02;116.80;;;6.70;99.90;;;;;;5039583;28;20140;-87
2022/01/14 00:36:38;;;;;;;159.32;120.05;;;6.60;99.90;;;;;;5022642;28;20438;-86
2022/01/14 00:39:07;;;;;;;150.25;119.22;;;6.60;99.90;;;;;;5031061;28;20819;-87
2022/01/14 00:41:35;;;;;;;160.20;118.22;;;6.60;99.90;;;;;;5024417;28;20116;-86
2022/01/14 00:44:05;;;;;;;163.25;119.57;;;6.60;99.90;;;;;;5039973;28;20165;-86
2022/01/14 00:46:33;;;;;;;146.95;118.35;;;6.60;99.90;;;;;;5035854;28;20103;-86
2022/01/14 00:49:01;;;;;;;155.50;118.25;;;6.60;99.90;;;;;;5021802;28;20060;-87
2022/01/14 00:51:28;;;;;;;154.55;117.85;;;6.60;99.90;;;;;;5025511;28;20132;-86
2022/01/14 00:53:55;;;;;;;152.05;117.72;;;6.60;99.90;;;;;;5039687;28;20137;-85
2022/01/14 00:56:27;;;;;;;150.68;116.25;;;6.60;99.90;;;;;;5007507;28;20140;-86
2022/01/14 01:01:40;;;;;;;155.75;118.88;;;6.60;99.90;;;;;;5018657;28;20050;-85
2022/01/14 01:04:08;;;;;;;148.57;117.43;;;6.60;99.90;;;;;;5017440;28;20050;-86
2022/01/14 01:06:36;;;;;;;148.57;116.32;;;6.60;99.90;;;;;;5006594;28;20116;-86
2022/01/14 01:09:10;;;;;;;154.38;118.20;;;6.60;99.90;;;;;;5045774;28;20053;-86
2022/01/14 01:11:40;;;;;;;148.60;120.20;;;6.60;99.90;;;;;;5029612;28;20064;-86
2022/01/14 01:14:11;;;;;;;150.00;116.22;;;6.70;99.90;;;;;;5038246;28;20044;-87
2022/01/14 01:16:39;;;;;;;151.43;118.55;;;6.60;99.90;;;;;;5009268;28;20061;-86
2022/01/14 01:19:06;;;;;;;142.35;116.70;;;6.60;99.90;;;;;;5057989;28;20083;-86
2022/01/14 01:21:35;;;;;;;150.32;121.85;;;6.60;99.90;;;;;;5031316;28;20079;-86
2022/01/14 01:24:03;;;;;;;142.85;118.13;;;6.60;99.90;;;;;;5038355;28;20132;-86
2022/01/14 01:26:33;;;;;;;150.70;118.75;;;6.60;99.90;;;;;;5019451;28;20658;-86
2022/01/14 01:29:16;;;;;;;154.88;120.43;;;6.60;99.90;;;;;;5033614;28;20061;-85
2022/01/14 01:31:45;;;;;;;141.77;117.35;;;6.60;99.90;;;;;;5002329;28;20061;-86
2022/01/14 01:34:14;;;;;;;149.15;119.10;;;6.60;99.90;;;;;;5016200;28;20523;-87
2022/01/14 01:36:47;;;;;;;145.57;118.93;;;6.60;99.90;;;;;;5021722;28;20114;-86
2022/01/14 01:39:17;;;;;;;151.13;119.50;;;6.60;99.90;;;;;;5027405;28;20550;-86
2022/01/14 01:41:47;;;;;;;148.00;119.82;;;6.60;99.90;;;;;;5058054;28;20132;-86
2022/01/14 01:44:17;;;;;;;151.25;121.07;;;6.60;99.90;;;;;;5023595;28;20493;-87
2022/01/14 01:46:47;;;;;;;149.85;118.18;;;6.60;99.90;;;;;;5037371;28;20058;-86
2022/01/14 01:49:16;;;;;;;148.50;119.63;;;6.60;99.90;;;;;;5017435;28;20045;-85
2022/01/14 01:51:47;;;;;;;145.93;121.00;;;6.60;99.90;;;;;;5019997;28;20055;-86
2022/01/14 01:54:14;;;;;;;151.40;121.72;;;6.70;99.90;;;;;;5057547;28;20141;-87
2022/01/14 01:56:42;;;;;;;157.40;121.75;;;6.60;99.90;;;;;;5012308;28;20743;-85
2022/01/14 01:59:10;;;;;;;146.50;120.80;;;6.60;99.90;;;;;;5017864;28;20527;-87
2022/01/14 02:01:39;;;;;;;146.50;121.72;;;6.60;99.90;;;;;;5020551;28;20057;-85
2022/01/14 02:04:06;;;;;;;141.52;121.43;;;6.70;99.90;;;;;;5037845;28;20060;-87
2022/01/14 02:06:33;;;;;;;;;;;6.70;99.90;;;;;;5018444;28;20157;-87
2022/01/14 02:09:02;;;;;;;149.50;119.15;;;6.70;99.90;;;;;;5021224;28;19925;-86
2022/01/14 02:11:29;;;;;;;145.32;122.32;;;6.70;99.90;;;;;;5005283;28;20144;-85
2022/01/14 02:13:59;;;;;;;141.98;120.85;;;6.70;99.90;;;;;;5016917;28;20066;-84
2022/01/14 02:16:34;;;;;;;140.82;121.78;;;6.70;99.90;;;;;;5032148;28;20080;-87
2022/01/14 02:19:15;;;;;;;145.77;120.57;;;6.70;99.90;;;;;;5024382;28;20088;-86
2022/01/14 02:24:55;;;;;;;140.68;122.20;;;6.70;99.90;;;;;;5013026;28;20042;-86
2022/01/14 02:27:22;;;;;;;140.23;121.80;;;6.70;99.90;;;;;;5035417;28;20054;-86
2022/01/14 02:29:50;;;;;;;144.15;123.18;;;6.70;99.90;;;;;;5031051;28;20503;-87
2022/01/14 02:32:17;;;;;;;142.60;124.97;;;6.70;99.90;;;;;;5022275;28;20533;-85
2022/01/14 02:34:45;;;;;;;;;;;6.70;99.90;;;;;;5043187;28;20132;-86
2022/01/14 02:37:19;;;;;;;140.70;121.32;;;6.70;99.90;;;;;;5039150;28;19936;-86
2022/01/14 02:39:47;;;;;;;143.60;122.20;;;6.70;99.90;;;;;;5036903;28;20046;-86
2022/01/14 02:42:14;;;;;;;139.13;121.13;;;6.70;99.90;;;;;;5014189;28;20049;-85
2022/01/14 02:44:41;;;;;;;;;;;6.70;99.90;;;;;;5051150;28;20053;-87
2022/01/14 02:47:08;;;;;;;;;;;6.70;99.90;;;;;;5039595;28;20023;-87
2022/01/14 02:49:37;;;;;;;144.25;121.93;;;6.70;99.90;;;;;;5037414;28;19925;-86
2022/01/14 02:52:08;;;;;;;139.23;122.20;;;6.70;99.90;;;;;;5020363;28;20053;-86
2022/01/14 02:54:51;;;;;;;137.98;122.35;;;6.70;99.90;;;;;;5028115;28;20192;-85
2022/01/14 02:57:20;;;;;;;144.35;122.55;;;6.80;99.90;;;;;;5036567;28;20052;-86
2022/01/14 02:59:49;;;;;;;143.63;122.10;;;6.70;99.90;;;;;;5019810;28;20503;-87
2022/01/14 03:02:18;;;;;;;138.02;121.35;;;6.70;99.90;;;;;;5020430;28;20062;-86
2022/01/14 03:04:48;;;;;;;141.35;121.93;;;6.70;99.90;;;;;;5016655;28;20528;-86
2022/01/14 03:07:16;;;;;;;140.50;121.90;;;6.70;99.90;;;;;;5032293;28;20046;-86
2022/01/14 03:09:45;;;;;;;147.77;126.75;;;6.70;99.90;;;;;;5036472;28;20054;-86
2022/01/14 03:12:12;;;;;;;140.35;122.18;;;6.70;99.90;;;;;;5026838;28;20536;-86
2022/01/14 03:14:39;;;;;;;141.05;122.30;;;6.70;99.90;;;;;;5029751;28;20052;-86
2022/01/14 03:17:07;;;;;;;;;;;6.70;99.90;;;;;;5019972;28;20046;-86
2022/01/14 03:19:34;;;;;;;140.73;119.72;;;6.70;99.90;;;;;;5020210;28;19972;-86
2022/01/14 03:22:18;;;;;;;142.82;118.00;;;6.70;99.90;;;;;;5019938;28;20049;-86
2022/01/14 03:27:31;;;;;;;141.60;118.40;;;6.70;99.90;;;;;;5053668;28;20052;-85
2022/01/14 03:29:58;;;;;;;142.18;121.60;;;6.70;99.90;;;;;;5023480;28;20434;-86
2022/01/14 03:32:25;;;;;;;138.68;121.28;;;6.70;99.90;;;;;;5019465;28;20076;-86
2022/01/14 03:34:52;;;;;;;;;;;6.70;99.90;;;;;;5035047;28;20414;-86
2022/01/14 03:37:19;;;;;;;;;;;6.70;99.90;;;;;;5043887;28;19983;-86
2022/01/14 03:39:47;;;;;;;143.45;118.55;;;6.70;99.90;;;;;;5012256;28;19925;-87
2022/01/14 03:42:15;;;;;;;144.32;122.45;;;6.60;99.90;;;;;;5011303;28;20507;-86
2022/01/14 03:44:41;;;;;;;;;;;6.60;99.90;;;;;;5043720;28;20045;-87
2022/01/14 03:47:08;;;;;;;144.80;120.60;;;6.70;99.90;;;;;;5021394;28;19985;-86
2022/01/14 03:49:35;;;;;;;135.52;120.28;;;6.60;99.90;;;;;;5048429;28;20049;-86
2022/01/14 03:52:02;;;;;;;;;;;6.60;99.90;;;;;;5043497;28;20056;-86
2022/01/14 03:54:30;;;;;;;135.02;117.03;;;6.60;99.90;;;;;;5043022;28;20378;-85
2022/01/14 03:56:58;;;;;;;140.57;123.18;;;6.60;99.90;;;;;;5050931;28;20527;-86
2022/01/14 03:59:25;;;;;;;143.13;120.20;;;6.60;99.90;;;;;;5022904;28;20053;-86
2022/01/14 04:01:53;;;;;;;141.43;121.97;;;6.60;99.90;;;;;;5023009;28;20058;-87
2022/01/14 04:04:20;;;;;;;142.00;117.65;;;6.60;99.90;;;;;;5022541;28;20053;-86
2022/01/14 04:06:47;;;;;;;136.98;118.20;;;6.60;99.90;;;;;;5022916;28;20136;-86
2022/01/14 04:09:14;;;;;;;136.45;119.18;;;6.60;99.90;;;;;;5019381;28;20060;-87
2022/01/14 04:11:44;;;;;;;135.57;119.60;;;6.60;99.90;;;;;;5019420;28;20126;-86
2022/01/14 04:16:54;;;;;;;138.70;119.90;;;6.60;99.90;;;;;;5018541;28;20050;-87
2022/01/14 04:19:21;;;;;;;137.90;121.32;;;6.60;99.90;;;;;;5011161;28;20393;-87
2022/01/14 04:21:49;;;;;;;134.27;117.22;;;6.60;99.90;;;;;;5029216;28;20507;-86
2022/01/14 04:24:15;;;;;;;137.23;119.72;;;6.60;99.90;;;;;;5022825;28;20105;-85
2022/01/14 04:26:43;;;;;;;136.02;119.30;;;6.50;99.90;;;;;;5025578;28;20136;-86
2022/01/14 04:29:10;;;;;;;136.60;118.80;;;6.60;99.90;;;;;;5034270;28;20073;-86
2022/01/14 04:31:38;;;;;;;132.25;117.75;;;6.60;99.90;;;;;;5025951;28;20049;-86
2022/01/14 04:34:05;;;;;;;136.95;119.07;;;6.60;99.90;;;;;;5042321;28;20136;-86
2022/01/14 04:36:32;;;;;;;;;;;6.60;99.90;;;;;;5040102;28;20508;-86
2022/01/14 04:38:59;;;;;;;;;;;6.60;99.90;;;;;;5023175;28;20015;-86
2022/01/14 04:41:26;;;;;;;;;;;6.60;99.90;;;;;;5019698;28;20012;-86
2022/01/14 04:43:53;;;;;;;137.32;121.82;;;6.60;99.90;;;;;;5041953;28;19975;-86
2022/01/14 04:46:49;;;;;;;143.63;120.88;;;6.60;99.90;;;;;;5022398;28;20060;-86
2022/01/14 04:49:17;;;;;;;135.23;119.07;;;6.60;99.90;;;;;;5021715;28;20053;-86
2022/01/14 04:51:44;;;;;;;137.20;122.13;;;6.60;99.90;;;;;;5022139;28;20573;-85
2022/01/14 04:54:11;;;;;;;135.35;120.45;;;6.60;99.90;;;;;;5038715;28;20136;-86
2022/01/14 04:56:38;;;;;;;;;;;6.60;99.90;;;;;;5038998;28;20055;-86
2022/01/14 04:59:05;;;;;;;135.70;118.32;;;6.50;99.90;;;;;;5038841;28;19931;-86
2022/01/14 05:01:33;;;;;;;135.05;120.45;;;6.60;99.90;;;;;;5022064;28;20161;-86
2022/01/14 05:03:59;;;;;;;;;;;6.60;99.90;;;;;;5015234;28;20847;-86
2022/01/14 05:06:29;;;;;;;136.50;121.45;;;6.50;99.90;;;;;;5052954;28;19928;-86
2022/01/14 05:08:56;;;;;;;135.65;121.13;;;6.50;99.90;;;;;;5021530;28;20053;-86
2022/01/14 05:11:36;;;;;;;;;;;6.60;99.90;;;;;;5022346;28;20052;-86
2022/01/14 05:14:03;;;;;;;139.48;120.93;;;6.50;99.90;;;;;;5032789;28;20367;-86
2022/01/14 05:16:30;;;;;;;137.85;123.15;;;6.50;99.90;;;;;;5027082;28;20569;-86
2022/01/14 05:18:57;;;;;;;135.75;120.93;;;6.50;99.90;;;;;;5020720;28;20077;-86
2022/01/14 05:21:25;;;;;;;135.40;120.50;;;6.50;99.90;;;;;;5036766;28;20129;-86
2022/01/14 05:23:55;;;;;;;134.40;120.13;;;6.50;99.90;;;;;;5018200;28;20611;-86
2022/01/14 05:26:23;;;;;;;134.30;117.05;;;6.50;99.90;;;;;;5015616;28;20053;-85
2022/01/14 05:28:50;;;;;;;133.43;118.72;;;6.50;99.90;;;;;;5023137;28;20121;-86
2022/01/14 05:31:17;;;;;;;132.70;118.32;;;6.50;99.90;;;;;;5024816;28;20049;-86
2022/01/14 05:33:46;;;;;;;138.43;120.88;;;6.50;99.90;;;;;;5025170;28;20149;-86
2022/01/14 05:36:13;;;;;;;131.85;117.45;;;6.50;99.90;;;;;;5031656;28;20084;-86
2022/01/14 05:38:40;;;;;;;132.88;118.28;;;6.50;99.90;;;;;;5008117;28;20104;-86
2022/01/14 05:41:10;;;;;;;134.85;120.00;;;6.50;99.90;;;;;;5034122;28;20140;-86
2022/01/14 05:43:37;;;;;;;133.32;119.07;;;6.50;99.90;;;;;;5038826;28;20104;-86
2022/01/14 05:46:04;;;;;;;133.85;119.18;;;6.50;99.90;;;;;;5045088;28;20080;-86
2022/01/14 05:48:31;;;;;;;134.38;117.38;;;6.50;99.90;;;;;;5042910;28;20056;-86
2022/01/14 05:50:58;;;;;;;142.20;119.38;;;6.40;99.90;;;;;;5031628;28;20210;-86
2022/01/14 05:53:25;;;;;;;133.98;117.35;;;6.50;99.90;;;;;;5039533;28;20096;-85
2022/01/14 05:55:52;;;;;;;139.23;124.18;;;6.50;99.90;;;;;;5038050;28;20507;-86
2022/01/14 05:58:20;;;;;;;133.75;118.45;;;6.50;99.90;;;;;;5006342;28;20076;-85
2022/01/14 06:00:47;;;;;;;135.80;121.00;;;6.50;99.90;;;;;;5020531;28;20050;-87
2022/01/14 06:03:15;;;;;;;137.32;120.63;;;6.40;99.90;;;;;;5017806;28;20050;-86
2022/01/14 06:06:07;;;;;;;135.07;120.70;;;6.50;99.90;;;;;;5017658;28;20081;-86
2022/01/14 06:08:34;;;;;;;135.38;120.68;;;6.40;99.90;;;;;;5007931;28;20049;-86
2022/01/14 06:11:01;;;;;;;141.30;122.60;;;6.40;99.90;;;;;;5017529;28;20194;-84
2022/01/14 06:13:32;;;;;;;136.80;121.85;;;6.40;99.90;;;;;;5004266;28;20062;-86
2022/01/14 06:16:00;;;;;;;132.60;118.38;;;6.40;99.90;;;;;;5055452;28;20508;-86
2022/01/14 06:18:27;;;;;;;135.15;120.43;;;6.50;99.90;;;;;;5031830;28;20131;-85
2022/01/14 06:20:54;;;;;;;135.30;120.55;;;6.40;99.90;;;;;;5000355;28;20053;-86
2022/01/14 06:23:21;;;;;;;137.07;121.32;;;6.50;99.90;;;;;;5017225;28;20058;-86
2022/01/14 06:25:48;;;;;;;135.45;121.03;;;6.40;99.90;;;;;;5049106;28;20107;-86
2022/01/14 06:28:15;;;;;;;136.98;121.95;;;6.40;99.90;;;;;;5017236;28;20153;-86
2022/01/14 06:30:43;;;;;;;134.20;119.85;;;6.40;99.90;;;;;;5017382;28;20054;-86
2022/01/14 06:33:10;;;;;;;135.95;121.43;;;6.40;99.90;;;;;;5016520;28;20136;-85
2022/01/14 06:35:39;;;;;;;135.88;120.78;;;6.30;99.90;;;;;;5031705;28;20559;-86
2022/01/14 06:38:06;;;;;;;132.43;117.85;;;6.40;99.90;;;;;;5009268;28;20793;-86
2022/01/14 06:40:33;;;;;;;136.18;121.63;;;6.30;99.90;;;;;;5020294;28;20111;-85
2022/01/14 06:43:00;;;;;;;134.38;119.50;;;6.30;99.90;;;;;;5007540;28;20148;-84
2022/01/14 06:45:28;;;;;;;136.30;121.43;;;6.30;99.90;;;;;;5053349;28;20538;-85
2022/01/14 06:47:56;;;;;;;134.27;120.05;;;6.30;99.90;;;;;;5025651;28;20056;-86
2022/01/14 06:50:23;;;;;;;136.55;121.57;;;6.30;99.90;;;;;;5046407;28;20053;-86
2022/01/14 06:52:50;;;;;;;135.55;120.70;;;6.30;99.90;;;;;;5050889;28;20049;-85
2022/01/14 06:55:18;;;;;;;136.50;121.75;;;6.30;99.90;;;;;;5038276;28;20052;-86
2022/01/14 06:57:45;;;;;;;137.30;122.80;;;6.30;99.90;;;;;;5036264;28;20053;-86
2022/01/14 07:00:14;;;;;;;;;;;6.30;99.90;;;;;;5036826;28;20049;-85
2022/01/14 07:02:42;;;;;;;136.25;121.32;;;6.30;99.90;;;;;;5010393;28;20012;-84
2022/01/14 07:05:12;;;;;;;135.43;120.65;;;6.30;99.90;;;;;;5019994;28;20400;-85
2022/01/14 07:07:40;;;;;;;136.40;121.88;;;6.30;99.90;;;;;;5025927;28;20053;-87
2022/01/14 07:10:09;;;;;;;136.48;121.90;;;6.30;99.90;;;;;;5037332;28;20059;-86
2022/01/14 07:12:38;;;;;;;136.43;121.93;;;6.30;99.90;;;;;;5013326;28;20060;-86
2022/01/14 07:15:08;;;;;;;137.32;123.22;;;6.30;99.90;;;;;;5012900;28;20054;-86
2022/01/14 07:17:35;;;;;;;139.57;124.70;;;6.40;99.90;;;;;;5018871;28;20069;-85
2022/01/14 07:20:07;;;;;;;135.50;121.25;;;6.30;99.90;;;;;;5019042;28;20053;-87
2022/01/14 07:22:35;;;;;;;136.40;121.45;;;6.40;99.90;;;;;;4959084;28;21016;-85
2022/01/14 07:25:03;;;;;;;134.82;120.22;;;6.40;99.90;;;;;;5036100;28;20058;-85
2022/01/14 07:27:30;;;;;;;;;;;6.30;99.90;;;;;;5007244;28;20058;-86
2022/01/14 07:29:58;;;;;;;133.90;119.15;;;6.30;99.90;;;;;;5000289;28;19933;-87
2022/01/14 07:32:26;;;;;;;135.18;120.88;;;6.30;99.90;;;;;;5019564;28;20109;-86
2022/01/14 07:34:53;;;;;;;135.25;120.65;;;6.30;99.90;;;;;;5019194;28;20133;-86
2022/01/14 07:37:20;;;;;;;132.30;117.72;;;6.30;99.90;;;;;;5019579;28;20141;-86
2022/01/14 07:39:49;;;;;;;134.70;120.70;;;6.30;99.90;;;;;;5019233;28;20135;-85
2022/01/14 07:42:16;;;;;;;136.60;121.55;;;6.30;99.90;;;;;;5017773;28;20134;-85
2022/01/14 07:44:44;;;;;;;136.07;121.63;;;6.40;99.90;;;;;;5002676;28;20056;-85
2022/01/14 07:47:10;;;;;;;;;;;6.40;99.90;;;;;;5022336;28;20061;-85
2022/01/14 07:49:38;;;;;;;134.55;120.10;;;6.40;99.90;;;;;;5030433;28;20032;-85
2022/01/14 07:52:06;;;;;;;132.82;118.93;;;6.30;99.90;;;;;;5041328;28;20131;-85
2022/01/14 07:54:33;;;;;;;137.82;123.22;;;6.40;99.90;;;;;;5018369;28;20060;-84
2022/01/14 07:57:02;;;;;;;;;;;6.40;99.90;;;;;;5014366;28;20055;-87
2022/01/14 07:59:32;;;;;;;133.15;119.20;;;6.40;99.90;;;;;;5014506;28;19932;-86
2022/01/14 08:02:00;;;;;;;135.95;121.32;;;6.30;99.90;;;;;;5030353;28;20113;-86
2022/01/14 08:04:29;;;;;;;133.82;119.22;;;6.40;99.90;;;;;;5028771;28;20053;-86
2022/01/14 08:07:08;;;;;;;133.10;119.10;;;6.40;99.90;;;;;;5035673;28;20096;-85
2022/01/14 08:09:36;;;;;;;133.18;118.63;;;6.40;99.90;;;;;;5043038;28;20053;-85
2022/01/14 08:12:05;;;;;;;135.95;121.57;;;6.50;99.90;;;;;;5024933;28;20050;-85
2022/01/14 08:14:33;;;;;;;135.30;120.88;;;6.50;99.90;;;;;;5002031;28;20042;-86
2022/01/14 08:17:00;;;;;;;134.73;120.13;;;6.50;99.90;;;;;;5014569;28;20079;-85
2022/01/14 08:19:32;;;;;;;132.52;118.25;;;6.50;99.90;;;;;;5006656;28;20054;-86
2022/01/14 08:22:01;;;;;;;133.10;119.28;;;6.60;99.90;;;;;;5036915;28;20866;-86
2022/01/14 08:24:28;;;;;;;133.18;118.72;;;6.50;99.90;;;;;;5022398;28;20061;-86
2022/01/14 08:26:55;;;;;;;131.93;117.63;;;6.50;99.90;;;;;;5050918;28;20059;-86
2022/01/14 08:29:24;;;;;;;133.50;119.55;;;6.50;99.90;;;;;;5025859;28;20077;-85
2022/01/14 08:31:51;;;;;;;131.20;117.25;;;6.50;99.90;;;;;;5006527;28;20132;-85
2022/01/14 08:34:19;;;;;;;133.77;119.47;;;6.50;99.90;;;;;;5039901;28;20527;-85
2022/01/14 08:36:47;;;;;;;134.32;119.43;;;6.50;99.90;;;;;;5021213;28;20527;-85
2022/01/14 08:39:14;;;;;;;133.07;118.32;;;6.50;99.90;;;;;;5038058;28;20055;-85
2022/01/14 08:41:43;;;;;;;132.80;118.38;;;6.60;99.90;;;;;;5022799;28;20100;-87
2022/01/14 08:44:11;;;;;;;131.20;117.40;;;6.60;99.90;;;;;;5040650;28;20581;-85
2022/01/14 08:46:40;;;;;;;130.20;116.43;;;6.60;99.90;;;;;;5056940;28;20080;-85
2022/01/14 08:49:09;;;;;;;133.48;119.00;;;6.60;99.90;;;;;;5041331;28;20077;-84
2022/01/14 08:51:36;;;;;;;133.48;119.35;;;6.60;99.90;;;;;;5011303;28;20105;-85
2022/01/14 08:54:04;;;;;;;130.85;117.22;;;6.60;99.90;;;;;;5020852;28;20045;-84
2022/01/14 08:56:33;;;;;;;131.45;117.57;;;6.60;99.90;;;;;;5022569;28;20108;-84
2022/01/14 08:59:01;;;;;;;132.38;118.47;;;6.60;99.90;;;;;;5020524;28;20052;-83
2022/01/14 09:01:30;;;;;;;131.38;116.72;;;6.60;99.90;;;;;;5037999;28;20060;-84
2022/01/14 09:03:59;;;;;;;129.20;115.45;;;6.70;99.90;;;;;;5021308;28;20085;-83
2022/01/14 09:06:26;;;;;;;130.13;116.13;;;6.70;99.90;;;;;;5022219;28;20056;-84
2022/01/14 09:08:53;;;;;;;130.70;116.75;;;6.70;99.90;;;;;;5025519;28;20063;-82
2022/01/14 09:11:20;;;;;;;130.27;117.00;;;6.70;99.90;;;;;;5046231;28;20160;-83
2022/01/14 09:13:47;;;;;;;131.05;117.10;;;6.80;99.90;;;;;;5040722;28;20055;-85
2022/01/14 09:16:17;;;;;;;;;;;6.80;99.90;;;;;;5031950;28;20153;-85
2022/01/14 09:18:44;;;;;;;131.55;117.60;;;6.80;99.90;;;;;;5023507;28;20047;-84
2022/01/14 09:21:13;;;;;;;129.18;115.57;;;6.80;99.90;;;;;;5007869;28;20054;-83
2022/01/14 09:23:40;;;;;;;130.13;115.97;;;6.80;99.90;;;;;;5038121;28;20053;-83
2022/01/14 09:26:07;;;;;;;131.35;117.88;;;6.80;99.90;;;;;;5036017;28;20100;-84
2022/01/14 09:28:34;;;;;;;;;;;6.80;99.90;;;;;;5021519;28;20068;-83
2022/01/14 09:31:01;;;;;;;126.03;112.60;;;6.80;99.90;;;;;;5034542;28;19977;-84
2022/01/14 09:33:29;;;;;;;128.70;115.10;;;6.80;99.90;;;;;;5014180;28;20100;-83
2022/01/14 09:35:56;;;;;;;130.10;116.15;;;6.90;99.90;;;;;;5018033;28;20575;-86
2022/01/14 09:38:25;;;;;;;129.55;115.47;;;6.90;99.90;;;;;;5033454;28;20137;-84
2022/01/14 09:40:52;;;;;;;129.55;115.53;;;6.90;99.90;;;;;;5013431;28;20061;-83
2022/01/14 09:43:19;;;;;;;129.85;115.78;;;6.90;99.90;;;;;;5036988;28;20054;-83
2022/01/14 09:45:46;;;;;;;;;;;6.90;99.90;;;;;;5020972;28;20053;-83
2022/01/14 09:48:16;;;;;;;126.60;113.28;;;6.90;99.90;;;;;;5044127;28;19925;-82
2022/01/14 09:50:45;;;;;;;127.00;113.65;;;6.90;99.90;;;;;;5036873;28;20049;-82
2022/01/14 09:53:14;;;;;;;127.22;113.85;;;6.90;99.90;;;;;;5020479;28;20042;-83
2022/01/14 09:55:43;;;;;;;126.85;112.70;;;7.00;99.90;;;;;;5020582;28;20136;-83
2022/01/14 09:58:11;;;;;;;123.57;110.43;;;7.00;99.90;;;;;;5040211;28;20074;-83
2022/01/14 10:00:38;;;;;;;;;;;7.00;99.90;;;;;;5040765;28;20135;-84
2022/01/14 10:03:21;;;;;;;125.75;112.63;;;7.00;99.90;;;;;;5018944;28;19935;-83
2022/01/14 10:05:51;;;;;;;126.95;113.30;;;7.10;99.90;;;;;;5024644;28;20049;-83
2022/01/14 10:08:22;;;;;;;127.30;113.47;;;7.10;99.90;;;;;;5046363;28;20128;-84
2022/01/14 10:10:54;;;;;;;126.30;112.90;;;7.10;99.90;;;;;;5019782;28;20053;-80
2022/01/14 10:13:22;;;;;;;124.20;111.35;;;7.10;99.90;;;;;;5005153;28;20056;-82
2022/01/14 10:15:52;;;;;;;123.05;109.82;;;7.20;99.90;;;;;;5018696;28;20050;-83
2022/01/14 10:18:22;;;;;;;124.75;111.50;;;7.20;99.90;;;;;;5016442;28;20133;-83
2022/01/14 10:20:50;;;;;;;121.40;108.95;;;7.20;99.90;;;;;;5030156;28;20132;-80
2022/01/14 10:23:17;;;;;;;123.10;109.97;;;7.20;99.90;;;;;;5032652;28;20129;-80
2022/01/14 10:25:57;;;;;;;121.13;108.68;;;7.20;99.90;;;;;;5036338;28;20144;-81
2022/01/14 10:28:24;;;;;;;119.22;107.30;;;7.20;99.90;;;;;;5035791;28;20057;-80
2022/01/14 10:30:51;;;;;;;;;;;7.30;99.90;;;;;;5009992;28;20140;-81
2022/01/14 10:33:20;;;;;;;;;;;7.20;99.90;;;;;;5037524;28;19929;-88
2022/01/14 10:35:49;;;;;;;120.78;107.93;;;7.30;99.90;;;;;;5020261;28;19925;-89
2022/01/14 10:38:25;;;;;;;117.28;105.03;;;7.30;99.90;;;;;;5019289;28;20132;-89
2022/01/14 10:41:19;;;;;;;115.37;103.17;;;7.30;99.90;;;;;;5022539;28;20050;-85
2022/01/14 10:43:46;;;;;;;119.28;106.40;;;7.30;99.90;;;;;;5008770;28;20054;-82
2022/01/14 10:46:38;;;;;;;116.60;104.05;;;7.40;99.90;;;;;;5030815;28;20397;-89
2022/01/14 10:49:08;;;;;;;116.43;103.97;;;7.50;99.90;;;;;;5032606;28;20057;-90
2022/01/14 10:51:35;;;;;;;117.38;105.40;;;7.50;99.90;;;;;;5034088;28;20161;-88
2022/01/14 10:54:04;;;;;;;116.85;104.35;;;7.50;99.90;;;;;;5017086;28;20132;-85
2022/01/14 10:56:33;;;;;;;116.53;104.15;;;7.50;99.90;;;;;;5038593;28;20512;-89
2022/01/14 10:59:00;;;;;;;115.78;103.90;;;7.50;99.90;;;;;;5016894;28;20053;-85
2022/01/14 11:01:30;;;;;;;114.38;102.70;;;7.50;99.90;;;;;;5034953;28;20144;-87
2022/01/14 11:04:00;;;;;;;118.35;106.05;;;7.50;99.90;;;;;;5022855;28;20610;-83
2022/01/14 11:06:29;;;;;;;115.60;103.80;;;7.50;99.90;;;;;;5027574;28;20156;-83
2022/01/14 11:08:58;;;;;;;117.60;105.40;;;7.50;99.90;;;;;;5014111;28;20054;-83
2022/01/14 11:11:26;;;;;;;117.68;105.57;;;7.50;99.90;;;;;;5001418;28;20104;-82
2022/01/14 11:13:55;;;;;;;115.80;103.68;;;7.50;99.90;;;;;;5011736;28;20128;-83
2022/01/14 11:16:22;;;;;;;116.53;104.55;;;7.50;99.90;;;;;;5003748;28;20056;-82
2022/01/14 11:18:50;;;;;;;119.40;107.20;;;7.50;99.90;;;;;;5019761;28;20132;-85
2022/01/14 11:24:04;;;;;;;119.50;107.35;;;7.60;99.90;;;;;;5010783;28;20046;-83
2022/01/14 11:26:35;;;;;;;117.60;105.93;;;7.60;99.90;;;;;;5030528;28;20058;-85
2022/01/14 11:29:11;;;;;;;118.28;106.05;;;7.60;99.90;;;;;;5024687;28;20133;-84
2022/01/14 11:31:39;;;;;;;118.88;106.72;;;7.60;99.90;;;;;;5020551;28;20054;-86
2022/01/14 11:34:10;;;;;;;116.63;104.82;;;7.60;99.90;;;;;;5020345;28;20507;-89
2022/01/14 11:36:51;;;;;;;118.30;106.18;;;7.60;99.90;;;;;;5026195;28;20057;-90
2022/01/14 11:39:19;;;;;;;117.03;104.93;;;7.70;99.90;;;;;;5030800;28;20064;-85
2022/01/14 11:41:56;;;;;;;117.97;105.95;;;7.60;99.90;;;;;;5020783;28;20217;-88
2022/01/14 11:44:55;;;;;;;115.30;103.38;;;7.70;99.90;;;;;;5056135;28;20053;-86
2022/01/14 11:48:02;;;;;;;116.60;104.88;;;7.70;99.90;;;;;;5025348;28;20122;-84
2022/01/14 11:50:49;;;;;;;115.80;104.00;;;7.70;99.90;;;;;;5050647;28;20102;-84
2022/01/14 11:53:48;;;;;;;116.22;104.18;;;7.70;99.90;;;;;;5033699;28;20116;-86
2022/01/14 11:56:57;;;;;;;113.35;101.82;;;7.70;99.90;;;;;;4976901;28;20085;-89
2022/01/14 11:59:56;;;;;;;114.93;103.10;;;7.70;99.90;;;;;;5028781;28;20053;-89
2022/01/14 12:02:42;;;;;;;115.75;103.85;;;7.70;99.90;;;;;;5005427;28;20058;-81
2022/01/14 12:05:21;;;;;;;116.13;104.15;;;7.70;99.90;;;;;;5027903;28;20632;-84
2022/01/14 12:08:23;;;;;;;116.32;104.97;;;7.70;99.90;;;;;;5061289;28;20059;-86
2022/01/14 12:10:53;;;;;;;115.28;103.93;;;7.70;99.90;;;;;;5017914;28;20078;-86
2022/01/14 12:13:39;;;;;;;114.13;102.20;;;7.70;99.90;;;;;;5014373;28;20099;-85
2022/01/14 12:16:11;;;;;;;116.07;104.15;;;7.80;99.90;;;;;;5022866;28;20052;-85
2022/01/14 12:19:17;;;;;;;117.00;104.85;;;7.80;99.90;;;;;;5022310;28;20061;-84
2022/01/14 12:22:02;;;;;;;117.00;104.80;;;7.80;99.90;;;;;;5019088;28;20136;-85
2022/01/14 12:24:35;;;;;;;116.70;104.57;;;7.80;99.90;;;;;;5002411;28;20057;-83
2022/01/14 12:27:35;;;;;;;114.95;103.43;;;7.80;99.90;;;;;;5011944;28;20053;-86
2022/01/14 12:30:10;;;;;;;117.45;105.60;;;7.80;99.90;;;;;;5020558;28;20054;-87
2022/01/14 12:32:41;;;;;;;118.95;106.93;;;7.80;99.90;;;;;;5026268;28;20100;-85
2022/01/14 12:35:11;;;;;;;117.68;105.78;;;7.80;99.90;;;;;;5032048;28;20499;-85
2022/01/14 12:37:41;;;;;;;116.18;104.43;;;7.80;99.90;;;;;;5021867;28;20057;-83
2022/01/14 12:40:12;;;;;;;115.88;104.35;;;7.80;99.90;;;;;;5039071;28;20520;-86
2022/01/14 12:42:40;;;;;;;116.97;104.68;;;7.80;99.90;;;;;;5040034;28;20253;-86
2022/01/14 12:45:11;;;;;;;116.68;104.78;;;7.90;99.90;;;;;;5023894;28;20154;-88
2022/01/14 12:47:42;;;;;;;118.40;106.20;;;7.80;99.90;;;;;;5023050;28;20093;-88
2022/01/14 12:50:12;;;;;;;116.90;104.78;;;7.90;99.90;;;;;;5035957;28;20049;-86
2022/01/14 12:52:47;;;;;;;118.65;106.55;;;7.80;99.90;;;;;;5006434;28;20054;-85
2022/01/14 12:55:15;;;;;;;117.15;104.88;;;7.90;99.90;;;;;;5019934;28;20123;-84
2022/01/14 12:57:42;;;;;;;116.95;105.07;;;7.80;99.90;;;;;;5055386;28;20057;-82
2022/01/14 13:00:10;;;;;;;;;;;7.90;99.90;;;;;;5016291;28;20052;-82
2022/01/14 13:02:41;;;;;;;118.50;106.10;;;7.90;99.90;;;;;;5019044;28;20394;-82